sensor_id;sensor_type;location;lat;lon;timestamp;P1;P2;P0
84927;PMS7003;75189;50.640;19.242;2024-01-07T00:06:05;7;2;1
84927;PMS7003;75189;50.640;19.242;2024-01-07T00:12:12;8;5;2
84927;PMS7003;75189;50.640;19.242;2024-01-07T00:18:19;7;4;3
84927;PMS7003;75189;50.640;19.242;2024-01-07T00:24:46;4;1;1
84927;PMS7003;75189;50.640;19.242;2024-01-07T00:30:53;5;3;2
84927;PMS7003;75189;50.640;19.242;2024-01-07T00:37:01;7;6;3
84927;PMS7003;75189;50.640;19.242;2024-01-07T00:43:07;1;1;0
84927;PMS7003;75189;50.640;19.242;2024-01-07T00:49:14;3;3;2
84927;PMS7003;75189;50.640;19.242;2024-01-07T00:55:22;6;4;2
84927;PMS7003;75189;50.640;19.242;2024-01-07T01:01:30;2;1;1
84927;PMS7003;75189;50.640;19.242;2024-01-07T01:07:37;4;4;2
84927;PMS7003;75189;50.640;19.242;2024-01-07T01:14:04;6;5;2
84927;PMS7003;75189;50.640;19.242;2024-01-07T01:20:11;5;2;1
84927;PMS7003;75189;50.640;19.242;2024-01-07T01:26:19;7;2;2
84927;PMS7003;75189;50.640;19.242;2024-01-07T01:32:25;3;2;1
84927;PMS7003;75189;50.640;19.242;2024-01-07T01:38:33;22;16;8
84927;PMS7003;75189;50.640;19.242;2024-01-07T01:44:40;10;6;3
84927;PMS7003;75189;50.640;19.242;2024-01-07T01:50:48;3;2;1
84927;PMS7003;75189;50.640;19.242;2024-01-07T01:56:55;7;3;2
84927;PMS7003;75189;50.640;19.242;2024-01-07T02:03:21;3;2;0
84927;PMS7003;75189;50.640;19.242;2024-01-07T02:09:27;5;2;2
84927;PMS7003;75189;50.640;19.242;2024-01-07T02:15:35;0;0;0
84927;PMS7003;75189;50.640;19.242;2024-01-07T02:21:41;4;2;1
84927;PMS7003;75189;50.640;19.242;2024-01-07T02:27:48;4;3;1
84927;PMS7003;75189;50.640;19.242;2024-01-07T02:33:55;2;1;1
84927;PMS7003;75189;50.640;19.242;2024-01-07T02:40:03;2;2;1
84927;PMS7003;75189;50.640;19.242;2024-01-07T02:46:10;5;1;0
84927;PMS7003;75189;50.640;19.242;2024-01-07T02:52:38;5;3;1
84927;PMS7003;75189;50.640;19.242;2024-01-07T02:58:45;1;0;0
84927;PMS7003;75189;50.640;19.242;2024-01-07T03:04:52;2;1;0
84927;PMS7003;75189;50.640;19.242;2024-01-07T03:11:04;3;2;1
84927;PMS7003;75189;50.640;19.242;2024-01-07T03:17:11;2;1;0
84927;PMS7003;75189;50.640;19.242;2024-01-07T03:23:22;5;5;3
84927;PMS7003;75189;50.640;19.242;2024-01-07T03:29:29;7;5;2
84927;PMS7003;75189;50.640;19.242;2024-01-07T03:35:36;3;1;0
84927;PMS7003;75189;50.640;19.242;2024-01-07T03:41:55;1;1;0
84927;PMS7003;75189;50.640;19.242;2024-01-07T03:48:02;4;2;1
84927;PMS7003;75189;50.640;19.242;2024-01-07T03:54:09;2;2;1
84927;PMS7003;75189;50.640;19.242;2024-01-07T04:00:17;3;3;0
84927;PMS7003;75189;50.640;19.242;2024-01-07T04:06:23;2;0;0
84927;PMS7003;75189;50.640;19.242;2024-01-07T04:12:30;6;3;2
84927;PMS7003;75189;50.640;19.242;2024-01-07T04:18:37;5;4;2
84927;PMS7003;75189;50.640;19.242;2024-01-07T04:24:44;4;0;0
84927;PMS7003;75189;50.640;19.242;2024-01-07T04:31:13;0;0;0
84927;PMS7003;75189;50.640;19.242;2024-01-07T04:37:19;2;2;0
84927;PMS7003;75189;50.640;19.242;2024-01-07T04:43:26;4;3;0
84927;PMS7003;75189;50.640;19.242;2024-01-07T04:49:33;1;0;0
84927;PMS7003;75189;50.640;19.242;2024-01-07T04:55:40;0;0;0
84927;PMS7003;75189;50.640;19.242;2024-01-07T05:01:47;1;1;0
84927;PMS7003;75189;50.640;19.242;2024-01-07T05:07:55;2;1;1
84927;PMS7003;75189;50.640;19.242;2024-01-07T05:14:01;6;2;0
84927;PMS7003;75189;50.640;19.242;2024-01-07T05:36:49;5;3;1
84927;PMS7003;75189;50.640;19.242;2024-01-07T05:42:56;4;3;2
84927;PMS7003;75189;50.640;19.242;2024-01-07T05:49:03;6;3;2
84927;PMS7003;75189;50.640;19.242;2024-01-07T05:55:10;1;1;1
84927;PMS7003;75189;50.640;19.242;2024-01-07T06:01:18;3;2;1
84927;PMS7003;75189;50.640;19.242;2024-01-07T06:07:27;4;1;0
84927;PMS7003;75189;50.640;19.242;2024-01-07T06:13:33;4;2;1
84927;PMS7003;75189;50.640;19.242;2024-01-07T06:20:07;2;2;1
84927;PMS7003;75189;50.640;19.242;2024-01-07T06:26:14;4;1;0
84927;PMS7003;75189;50.640;19.242;2024-01-07T06:32:21;2;1;1
84927;PMS7003;75189;50.640;19.242;2024-01-07T06:38:30;5;1;1
84927;PMS7003;75189;50.640;19.242;2024-01-07T06:44:37;2;2;1
84927;PMS7003;75189;50.640;19.242;2024-01-07T06:50:44;2;1;0
84927;PMS7003;75189;50.640;19.242;2024-01-07T06:56:51;4;2;0
84927;PMS7003;75189;50.640;19.242;2024-01-07T07:02:58;5;2;0
84927;PMS7003;75189;50.640;19.242;2024-01-07T07:09:23;1;1;0
84927;PMS7003;75189;50.640;19.242;2024-01-07T07:15:30;2;0;0
84927;PMS7003;75189;50.640;19.242;2024-01-07T07:21:38;9;4;2
84927;PMS7003;75189;50.640;19.242;2024-01-07T07:27:44;14;8;4
84927;PMS7003;75189;50.640;19.242;2024-01-07T07:33:52;5;5;2
84927;PMS7003;75189;50.640;19.242;2024-01-07T07:39:58;3;3;2
84927;PMS7003;75189;50.640;19.242;2024-01-07T07:46:06;6;4;3
84927;PMS7003;75189;50.640;19.242;2024-01-07T07:52:13;4;2;1
84927;PMS7003;75189;50.640;19.242;2024-01-07T07:58:41;8;4;2
84927;PMS7003;75189;50.640;19.242;2024-01-07T08:04:47;6;2;1
84927;PMS7003;75189;50.640;19.242;2024-01-07T08:10:54;3;3;2
84927;PMS7003;75189;50.640;19.242;2024-01-07T08:17:01;7;2;2
84927;PMS7003;75189;50.640;19.242;2024-01-07T08:23:10;3;3;0
84927;PMS7003;75189;50.640;19.242;2024-01-07T08:29:18;9;7;5
84927;PMS7003;75189;50.640;19.242;2024-01-07T08:35:24;5;3;2
84927;PMS7003;75189;50.640;19.242;2024-01-07T08:41:31;2;2;1
84927;PMS7003;75189;50.640;19.242;2024-01-07T08:47:58;8;5;3
84927;PMS7003;75189;50.640;19.242;2024-01-07T08:54:05;6;3;2
84927;PMS7003;75189;50.640;19.242;2024-01-07T09:00:13;9;6;4
84927;PMS7003;75189;50.640;19.242;2024-01-07T09:06:20;15;12;5
84927;PMS7003;75189;50.640;19.242;2024-01-07T09:12:27;10;8;4
84927;PMS7003;75189;50.640;19.242;2024-01-07T09:18:34;1;1;1
84927;PMS7003;75189;50.640;19.242;2024-01-07T09:24:41;9;5;4
84927;PMS7003;75189;50.640;19.242;2024-01-07T09:30:48;3;3;2
84927;PMS7003;75189;50.640;19.242;2024-01-07T09:37:16;5;3;2
84927;PMS7003;75189;50.640;19.242;2024-01-07T09:43:23;9;4;2
84927;PMS7003;75189;50.640;19.242;2024-01-07T09:49:31;18;11;7
84927;PMS7003;75189;50.640;19.242;2024-01-07T09:55:40;7;3;2
84927;PMS7003;75189;50.640;19.242;2024-01-07T10:01:56;12;7;4
84927;PMS7003;75189;50.640;19.242;2024-01-07T10:08:06;4;2;2
84927;PMS7003;75189;50.640;19.242;2024-01-07T10:14:14;7;3;2
84927;PMS7003;75189;50.640;19.242;2024-01-07T10:20:20;4;4;2
84927;PMS7003;75189;50.640;19.242;2024-01-07T10:26:33;4;4;2
84927;PMS7003;75189;50.640;19.242;2024-01-07T10:32:41;5;5;3
84927;PMS7003;75189;50.640;19.242;2024-01-07T10:38:50;9;4;2
84927;PMS7003;75189;50.640;19.242;2024-01-07T10:44:57;7;6;3
84927;PMS7003;75189;50.640;19.242;2024-01-07T10:51:08;6;3;2
84927;PMS7003;75189;50.640;19.242;2024-01-07T11:16:14;8;5;3
84927;PMS7003;75189;50.640;19.242;2024-01-07T11:22:32;13;6;4
84927;PMS7003;75189;50.640;19.242;2024-01-07T11:34:58;12;7;4
84927;PMS7003;75189;50.640;19.242;2024-01-07T11:41:06;12;8;4
84927;PMS7003;75189;50.640;19.242;2024-01-07T11:47:17;8;5;2
84927;PMS7003;75189;50.640;19.242;2024-01-07T11:53:25;8;7;3
84927;PMS7003;75189;50.640;19.242;2024-01-07T12:00:01;13;9;6
84927;PMS7003;75189;50.640;19.242;2024-01-07T12:06:09;15;7;5
84927;PMS7003;75189;50.640;19.242;2024-01-07T12:12:20;7;6;4
84927;PMS7003;75189;50.640;19.242;2024-01-07T12:18:27;12;6;4
84927;PMS7003;75189;50.640;19.242;2024-01-07T12:24:34;14;11;7
84927;PMS7003;75189;50.640;19.242;2024-01-07T12:30:42;12;8;5
84927;PMS7003;75189;50.640;19.242;2024-01-07T12:36:49;13;8;5
84927;PMS7003;75189;50.640;19.242;2024-01-07T12:42:57;15;10;5
84927;PMS7003;75189;50.640;19.242;2024-01-07T12:49:18;12;10;6
84927;PMS7003;75189;50.640;19.242;2024-01-07T12:55:25;14;12;7
84927;PMS7003;75189;50.640;19.242;2024-01-07T13:01:32;16;11;7
84927;PMS7003;75189;50.640;19.242;2024-01-07T13:07:42;15;12;7
84927;PMS7003;75189;50.640;19.242;2024-01-07T13:13:49;13;9;5
84927;PMS7003;75189;50.640;19.242;2024-01-07T13:19:56;18;12;8
84927;PMS7003;75189;50.640;19.242;2024-01-07T13:26:03;13;10;7
84927;PMS7003;75189;50.640;19.242;2024-01-07T13:32:13;21;15;10
84927;PMS7003;75189;50.640;19.242;2024-01-07T13:38:35;14;11;7
84927;PMS7003;75189;50.640;19.242;2024-01-07T13:44:47;13;11;8
84927;PMS7003;75189;50.640;19.242;2024-01-07T13:50:54;19;12;7
84927;PMS7003;75189;50.640;19.242;2024-01-07T13:57:04;16;10;7
84927;PMS7003;75189;50.640;19.242;2024-01-07T14:03:13;18;13;8
84927;PMS7003;75189;50.640;19.242;2024-01-07T14:09:21;17;11;8
84927;PMS7003;75189;50.640;19.242;2024-01-07T14:15:28;16;11;7
84927;PMS7003;75189;50.640;19.242;2024-01-07T14:21:36;20;14;8
84927;PMS7003;75189;50.640;19.242;2024-01-07T14:27:53;20;12;8
84927;PMS7003;75189;50.640;19.242;2024-01-07T14:34:01;22;19;11
84927;PMS7003;75189;50.640;19.242;2024-01-07T14:40:08;22;17;10
84927;PMS7003;75189;50.640;19.242;2024-01-07T14:46:18;27;16;10
84927;PMS7003;75189;50.640;19.242;2024-01-07T14:52:25;31;21;13
84927;PMS7003;75189;50.640;19.242;2024-01-07T14:58:34;27;18;11
84927;PMS7003;75189;50.640;19.242;2024-01-07T15:04:40;25;13;9
84927;PMS7003;75189;50.640;19.242;2024-01-07T15:10:48;15;9;7
84927;PMS7003;75189;50.640;19.242;2024-01-07T15:17:10;18;12;6
84927;PMS7003;75189;50.640;19.242;2024-01-07T15:23:18;15;7;5
84927;PMS7003;75189;50.640;19.242;2024-01-07T15:29:25;13;12;8
84927;PMS7003;75189;50.640;19.242;2024-01-07T15:35:33;11;8;5
84927;PMS7003;75189;50.640;19.242;2024-01-07T15:41:39;16;12;8
84927;PMS7003;75189;50.640;19.242;2024-01-07T15:47:46;14;9;6
84927;PMS7003;75189;50.640;19.242;2024-01-07T15:53:54;14;11;7
84927;PMS7003;75189;50.640;19.242;2024-01-07T16:00:01;11;7;5
84927;PMS7003;75189;50.640;19.242;2024-01-07T16:06:28;17;11;9
84927;PMS7003;75189;50.640;19.242;2024-01-07T16:12:34;13;10;7
84927;PMS7003;75189;50.640;19.242;2024-01-07T16:18:41;9;7;4
84927;PMS7003;75189;50.640;19.242;2024-01-07T16:24:49;15;12;8
84927;PMS7003;75189;50.640;19.242;2024-01-07T16:30:56;22;12;8
84927;PMS7003;75189;50.640;19.242;2024-01-07T16:37:04;35;25;15
84927;PMS7003;75189;50.640;19.242;2024-01-07T16:43:10;37;24;13
84927;PMS7003;75189;50.640;19.242;2024-01-07T16:49:18;51;35;20
84927;PMS7003;75189;50.640;19.242;2024-01-07T16:55:46;8;6;4
84927;PMS7003;75189;50.640;19.242;2024-01-07T17:01:54;17;9;7
84927;PMS7003;75189;50.640;19.242;2024-01-07T17:08:00;27;19;12
84927;PMS7003;75189;50.640;19.242;2024-01-07T17:14:08;14;12;7
84927;PMS7003;75189;50.640;19.242;2024-01-07T17:20:14;16;10;6
84927;PMS7003;75189;50.640;19.242;2024-01-07T17:26:25;14;8;6
84927;PMS7003;75189;50.640;19.242;2024-01-07T17:32:35;12;8;6
84927;PMS7003;75189;50.640;19.242;2024-01-07T17:38:42;17;15;9
84927;PMS7003;75189;50.640;19.242;2024-01-07T17:45:03;13;10;6
84927;PMS7003;75189;50.640;19.242;2024-01-07T17:51:18;12;9;5
84927;PMS7003;75189;50.640;19.242;2024-01-07T17:57:26;12;9;6
84927;PMS7003;75189;50.640;19.242;2024-01-07T18:03:37;12;11;6
84927;PMS7003;75189;50.640;19.242;2024-01-07T18:09:45;14;9;7
84927;PMS7003;75189;50.640;19.242;2024-01-07T18:15:51;13;12;9
84927;PMS7003;75189;50.640;19.242;2024-01-07T18:21:58;11;9;5
84927;PMS7003;75189;50.640;19.242;2024-01-07T18:28:05;14;12;7
84927;PMS7003;75189;50.640;19.242;2024-01-07T18:34:20;10;6;3
84927;PMS7003;75189;50.640;19.242;2024-01-07T18:40:27;19;15;9
84927;PMS7003;75189;50.640;19.242;2024-01-07T18:46:34;20;13;8
84927;PMS7003;75189;50.640;19.242;2024-01-07T18:52:41;14;10;7
84927;PMS7003;75189;50.640;19.242;2024-01-07T18:58:48;14;12;7
84927;PMS7003;75189;50.640;19.242;2024-01-07T19:04:55;12;9;5
84927;PMS7003;75189;50.640;19.242;2024-01-07T19:11:06;19;13;7
84927;PMS7003;75189;50.640;19.242;2024-01-07T19:17:13;39;29;16
84927;PMS7003;75189;50.640;19.242;2024-01-07T19:23:38;15;11;8
84927;PMS7003;75189;50.640;19.242;2024-01-07T19:29:49;18;12;8
84927;PMS7003;75189;50.640;19.242;2024-01-07T19:35:56;17;11;7
84927;PMS7003;75189;50.640;19.242;2024-01-07T19:42:04;20;14;7
84927;PMS7003;75189;50.640;19.242;2024-01-07T19:48:13;11;11;6
84927;PMS7003;75189;50.640;19.242;2024-01-07T19:54:21;13;11;7
84927;PMS7003;75189;50.640;19.242;2024-01-07T20:00:31;10;8;6
84927;PMS7003;75189;50.640;19.242;2024-01-07T20:06:38;9;8;5
84927;PMS7003;75189;50.640;19.242;2024-01-07T20:12:56;15;12;7
84927;PMS7003;75189;50.640;19.242;2024-01-07T20:19:04;15;11;7
84927;PMS7003;75189;50.640;19.242;2024-01-07T20:25:12;11;7;5
84927;PMS7003;75189;50.640;19.242;2024-01-07T20:31:19;13;9;6
84927;PMS7003;75189;50.640;19.242;2024-01-07T20:37:30;12;9;6
84927;PMS7003;75189;50.640;19.242;2024-01-07T20:43:38;13;9;5
84927;PMS7003;75189;50.640;19.242;2024-01-07T20:49:45;12;9;5
84927;PMS7003;75189;50.640;19.242;2024-01-07T20:55:53;14;9;7
84927;PMS7003;75189;50.640;19.242;2024-01-07T21:02:13;15;13;9
84927;PMS7003;75189;50.640;19.242;2024-01-07T21:08:21;17;11;6
84927;PMS7003;75189;50.640;19.242;2024-01-07T21:14:30;19;12;8
84927;PMS7003;75189;50.640;19.242;2024-01-07T21:20:38;20;16;11
84927;PMS7003;75189;50.640;19.242;2024-01-07T21:26:45;25;21;12
84927;PMS7003;75189;50.640;19.242;2024-01-07T21:32:52;22;16;11
84927;PMS7003;75189;50.640;19.242;2024-01-07T21:38:59;29;20;13
84927;PMS7003;75189;50.640;19.242;2024-01-07T21:45:06;27;14;9
84927;PMS7003;75189;50.640;19.242;2024-01-07T21:51:31;18;12;6
84927;PMS7003;75189;50.640;19.242;2024-01-07T21:57:39;13;10;5
84927;PMS7003;75189;50.640;19.242;2024-01-07T22:03:46;17;14;8
84927;PMS7003;75189;50.640;19.242;2024-01-07T22:09:53;21;18;11
84927;PMS7003;75189;50.640;19.242;2024-01-07T22:16:00;18;12;9
84927;PMS7003;75189;50.640;19.242;2024-01-07T22:22:07;7;6;4
84927;PMS7003;75189;50.640;19.242;2024-01-07T22:28:14;14;10;7
84927;PMS7003;75189;50.640;19.242;2024-01-07T22:34:21;25;16;9
84927;PMS7003;75189;50.640;19.242;2024-01-07T22:40:49;24;17;10
84927;PMS7003;75189;50.640;19.242;2024-01-07T22:46:56;15;12;7
84927;PMS7003;75189;50.640;19.242;2024-01-07T22:53:03;17;14;8
84927;PMS7003;75189;50.640;19.242;2024-01-07T22:59:11;22;14;11
84927;PMS7003;75189;50.640;19.242;2024-01-07T23:05:19;13;9;6
84927;PMS7003;75189;50.640;19.242;2024-01-07T23:11:26;21;16;10
84927;PMS7003;75189;50.640;19.242;2024-01-07T23:17:35;14;11;7
84927;PMS7003;75189;50.640;19.242;2024-01-07T23:23:42;21;14;9
84927;PMS7003;75189;50.640;19.242;2024-01-07T23:30:07;13;9;6
84927;PMS7003;75189;50.640;19.242;2024-01-07T23:36:14;11;9;5
84927;PMS7003;75189;50.640;19.242;2024-01-07T23:42:21;9;7;5
84927;PMS7003;75189;50.640;19.242;2024-01-07T23:48:28;14;7;5
84927;PMS7003;75189;50.640;19.242;2024-01-07T23:54:36;16;9;5
